sensor_id;sensor_type;location;lat;lon;timestamp;P1;durP1;ratioP1;P2;durP2;ratioP2
47762;SDS011;33526;42.690;23.322;2024-01-15T00:01:17;251.95;;;103.07;;
47762;SDS011;33526;42.690;23.322;2024-01-15T00:03:44;263.23;;;109.25;;
47762;SDS011;33526;42.690;23.322;2024-01-15T00:06:09;228.10;;;93.72;;
47762;SDS011;33526;42.690;23.322;2024-01-15T00:08:35;268.13;;;110.25;;
47762;SDS011;33526;42.690;23.322;2024-01-15T00:11:00;271.15;;;111.15;;
47762;SDS011;33526;42.690;23.322;2024-01-15T00:13:25;229.15;;;95.07;;
47762;SDS011;33526;42.690;23.322;2024-01-15T00:15:51;236.95;;;97.82;;
47762;SDS011;33526;42.690;23.322;2024-01-15T00:18:17;251.65;;;100.78;;
47762;SDS011;33526;42.690;23.322;2024-01-15T00:20:44;246.00;;;95.75;;
47762;SDS011;33526;42.690;23.322;2024-01-15T00:23:09;232.00;;;92.47;;
47762;SDS011;33526;42.690;23.322;2024-01-15T00:25:35;254.20;;;102.82;;
47762;SDS011;33526;42.690;23.322;2024-01-15T00:28:00;247.07;;;100.82;;
47762;SDS011;33526;42.690;23.322;2024-01-15T00:30:26;252.18;;;101.78;;
47762;SDS011;33526;42.690;23.322;2024-01-15T00:32:51;241.18;;;97.20;;
47762;SDS011;33526;42.690;23.322;2024-01-15T00:35:20;234.63;;;95.43;;
47762;SDS011;33526;42.690;23.322;2024-01-15T00:37:45;265.58;;;105.15;;
47762;SDS011;33526;42.690;23.322;2024-01-15T00:40:11;253.20;;;105.40;;
47762;SDS011;33526;42.690;23.322;2024-01-15T00:42:37;262.50;;;104.32;;
47762;SDS011;33526;42.690;23.322;2024-01-15T00:45:04;410.40;;;171.15;;
47762;SDS011;33526;42.690;23.322;2024-01-15T00:47:30;262.48;;;103.82;;
47762;SDS011;33526;42.690;23.322;2024-01-15T00:49:56;177.70;;;72.75;;
47762;SDS011;33526;42.690;23.322;2024-01-15T00:52:21;236.38;;;94.47;;
47762;SDS011;33526;42.690;23.322;2024-01-15T00:54:47;239.65;;;99.05;;
47762;SDS011;33526;42.690;23.322;2024-01-15T00:57:15;220.07;;;90.15;;
47762;SDS011;33526;42.690;23.322;2024-01-15T01:02:06;225.43;;;84.78;;
47762;SDS011;33526;42.690;23.322;2024-01-15T01:04:32;214.65;;;85.10;;
47762;SDS011;33526;42.690;23.322;2024-01-15T01:06:58;213.68;;;86.38;;
47762;SDS011;33526;42.690;23.322;2024-01-15T01:09:23;219.10;;;88.03;;
47762;SDS011;33526;42.690;23.322;2024-01-15T01:11:51;212.65;;;86.15;;
47762;SDS011;33526;42.690;23.322;2024-01-15T01:14:16;204.73;;;84.97;;
47762;SDS011;33526;42.690;23.322;2024-01-15T01:16:41;160.05;;;65.32;;
47762;SDS011;33526;42.690;23.322;2024-01-15T01:19:07;177.27;;;68.40;;
47762;SDS011;33526;42.690;23.322;2024-01-15T01:21:33;229.15;;;86.82;;
47762;SDS011;33526;42.690;23.322;2024-01-15T01:23:58;251.63;;;97.05;;
47762;SDS011;33526;42.690;23.322;2024-01-15T01:26:24;272.23;;;105.15;;
47762;SDS011;33526;42.690;23.322;2024-01-15T01:28:49;167.52;;;69.55;;
47762;SDS011;33526;42.690;23.322;2024-01-15T01:31:17;143.68;;;58.78;;
47762;SDS011;33526;42.690;23.322;2024-01-15T01:33:42;150.82;;;58.47;;
47762;SDS011;33526;42.690;23.322;2024-01-15T01:36:08;179.15;;;73.15;;
47762;SDS011;33526;42.690;23.322;2024-01-15T01:38:34;228.70;;;90.13;;
47762;SDS011;33526;42.690;23.322;2024-01-15T01:43:27;230.25;;;90.25;;
47762;SDS011;33526;42.690;23.322;2024-01-15T01:45:52;238.73;;;95.70;;
47762;SDS011;33526;42.690;23.322;2024-01-15T01:48:21;250.80;;;97.70;;
47762;SDS011;33526;42.690;23.322;2024-01-15T01:50:48;222.52;;;92.82;;
47762;SDS011;33526;42.690;23.322;2024-01-15T01:53:13;223.13;;;91.28;;
47762;SDS011;33526;42.690;23.322;2024-01-15T01:55:39;225.57;;;93.00;;
47762;SDS011;33526;42.690;23.322;2024-01-15T01:58:05;229.30;;;95.22;;
47762;SDS011;33526;42.690;23.322;2024-01-15T02:00:30;175.40;;;68.57;;
47762;SDS011;33526;42.690;23.322;2024-01-15T02:02:58;242.68;;;98.32;;
47762;SDS011;33526;42.690;23.322;2024-01-15T02:05:25;257.05;;;101.38;;
47762;SDS011;33526;42.690;23.322;2024-01-15T02:07:51;238.93;;;94.68;;
47762;SDS011;33526;42.690;23.322;2024-01-15T02:10:18;239.73;;;97.05;;
47762;SDS011;33526;42.690;23.322;2024-01-15T02:12:45;228.88;;;94.55;;
47762;SDS011;33526;42.690;23.322;2024-01-15T02:15:13;238.18;;;97.47;;
47762;SDS011;33526;42.690;23.322;2024-01-15T02:18:00;235.35;;;93.40;;
47762;SDS011;33526;42.690;23.322;2024-01-15T02:20:28;209.90;;;84.25;;
47762;SDS011;33526;42.690;23.322;2024-01-15T02:23:15;218.93;;;89.03;;
47762;SDS011;33526;42.690;23.322;2024-01-15T02:25:44;201.25;;;81.70;;
47762;SDS011;33526;42.690;23.322;2024-01-15T02:28:12;216.15;;;83.15;;
47762;SDS011;33526;42.690;23.322;2024-01-15T02:30:39;205.45;;;81.82;;
47762;SDS011;33526;42.690;23.322;2024-01-15T02:33:06;174.70;;;72.22;;
47762;SDS011;33526;42.690;23.322;2024-01-15T02:35:32;141.98;;;60.58;;
47762;SDS011;33526;42.690;23.322;2024-01-15T02:37:58;130.13;;;58.33;;
47762;SDS011;33526;42.690;23.322;2024-01-15T02:40:27;154.32;;;60.30;;
47762;SDS011;33526;42.690;23.322;2024-01-15T02:42:54;139.88;;;61.05;;
47762;SDS011;33526;42.690;23.322;2024-01-15T02:45:21;134.95;;;57.65;;
47762;SDS011;33526;42.690;23.322;2024-01-15T02:47:47;141.60;;;56.63;;
47762;SDS011;33526;42.690;23.322;2024-01-15T02:50:12;138.63;;;54.22;;
47762;SDS011;33526;42.690;23.322;2024-01-15T02:55:05;116.25;;;46.30;;
47762;SDS011;33526;42.690;23.322;2024-01-15T02:57:32;125.57;;;50.25;;
47762;SDS011;33526;42.690;23.322;2024-01-15T02:59:58;141.90;;;54.17;;
47762;SDS011;33526;42.690;23.322;2024-01-15T03:02:23;119.85;;;52.05;;
47762;SDS011;33526;42.690;23.322;2024-01-15T03:04:49;126.68;;;52.90;;
47762;SDS011;33526;42.690;23.322;2024-01-15T03:07:15;145.70;;;58.17;;
47762;SDS011;33526;42.690;23.322;2024-01-15T03:09:40;175.82;;;73.18;;
47762;SDS011;33526;42.690;23.322;2024-01-15T03:12:06;192.93;;;76.15;;
47762;SDS011;33526;42.690;23.322;2024-01-15T03:14:33;201.57;;;80.07;;
47762;SDS011;33526;42.690;23.322;2024-01-15T03:16:58;204.43;;;81.65;;
47762;SDS011;33526;42.690;23.322;2024-01-15T03:21:51;168.18;;;67.32;;
47762;SDS011;33526;42.690;23.322;2024-01-15T03:26:44;166.25;;;61.25;;
47762;SDS011;33526;42.690;23.322;2024-01-15T03:29:10;160.00;;;60.67;;
47762;SDS011;33526;42.690;23.322;2024-01-15T03:31:35;151.82;;;58.72;;
47762;SDS011;33526;42.690;23.322;2024-01-15T03:34:02;151.32;;;59.17;;
47762;SDS011;33526;42.690;23.322;2024-01-15T03:36:28;148.15;;;57.25;;
47762;SDS011;33526;42.690;23.322;2024-01-15T03:38:56;134.13;;;55.33;;
47762;SDS011;33526;42.690;23.322;2024-01-15T03:41:21;125.38;;;51.55;;
47762;SDS011;33526;42.690;23.322;2024-01-15T03:43:47;127.88;;;47.63;;
47762;SDS011;33526;42.690;23.322;2024-01-15T03:46:15;115.82;;;46.13;;
47762;SDS011;33526;42.690;23.322;2024-01-15T03:48:41;113.75;;;43.88;;
47762;SDS011;33526;42.690;23.322;2024-01-15T03:51:06;115.82;;;46.03;;
47762;SDS011;33526;42.690;23.322;2024-01-15T03:53:31;120.18;;;47.70;;
47762;SDS011;33526;42.690;23.322;2024-01-15T03:55:58;111.82;;;43.75;;
47762;SDS011;33526;42.690;23.322;2024-01-15T03:58:23;95.03;;;37.03;;
47762;SDS011;33526;42.690;23.322;2024-01-15T04:00:49;111.40;;;41.78;;
47762;SDS011;33526;42.690;23.322;2024-01-15T04:03:14;106.85;;;39.40;;
47762;SDS011;33526;42.690;23.322;2024-01-15T04:05:40;88.10;;;35.17;;
47762;SDS011;33526;42.690;23.322;2024-01-15T04:08:06;81.45;;;33.60;;
47762;SDS011;33526;42.690;23.322;2024-01-15T04:10:33;87.15;;;34.22;;
47762;SDS011;33526;42.690;23.322;2024-01-15T04:12:59;90.38;;;35.95;;
47762;SDS011;33526;42.690;23.322;2024-01-15T04:15:26;84.20;;;34.33;;
47762;SDS011;33526;42.690;23.322;2024-01-15T04:17:52;90.45;;;35.15;;
47762;SDS011;33526;42.690;23.322;2024-01-15T04:20:18;69.05;;;26.58;;
47762;SDS011;33526;42.690;23.322;2024-01-15T04:22:43;78.43;;;29.83;;
47762;SDS011;33526;42.690;23.322;2024-01-15T04:25:09;94.60;;;39.13;;
47762;SDS011;33526;42.690;23.322;2024-01-15T04:27:34;108.82;;;39.38;;
47762;SDS011;33526;42.690;23.322;2024-01-15T04:30:00;99.47;;;40.30;;
47762;SDS011;33526;42.690;23.322;2024-01-15T04:32:25;79.85;;;31.27;;
47762;SDS011;33526;42.690;23.322;2024-01-15T04:34:51;94.03;;;40.05;;
47762;SDS011;33526;42.690;23.322;2024-01-15T04:37:18;97.55;;;37.80;;
47762;SDS011;33526;42.690;23.322;2024-01-15T04:39:43;100.43;;;38.83;;
47762;SDS011;33526;42.690;23.322;2024-01-15T04:42:11;104.90;;;40.95;;
47762;SDS011;33526;42.690;23.322;2024-01-15T04:44:38;102.28;;;39.50;;
47762;SDS011;33526;42.690;23.322;2024-01-15T04:47:03;92.85;;;38.53;;
47762;SDS011;33526;42.690;23.322;2024-01-15T04:49:29;93.35;;;37.97;;
47762;SDS011;33526;42.690;23.322;2024-01-15T04:51:55;101.90;;;41.53;;
47762;SDS011;33526;42.690;23.322;2024-01-15T04:54:21;95.63;;;40.78;;
47762;SDS011;33526;42.690;23.322;2024-01-15T04:56:47;84.97;;;33.27;;
47762;SDS011;33526;42.690;23.322;2024-01-15T04:59:14;116.43;;;44.00;;
47762;SDS011;33526;42.690;23.322;2024-01-15T05:01:40;82.72;;;32.53;;
47762;SDS011;33526;42.690;23.322;2024-01-15T05:04:05;99.05;;;42.13;;
47762;SDS011;33526;42.690;23.322;2024-01-15T05:06:30;96.75;;;40.88;;
47762;SDS011;33526;42.690;23.322;2024-01-15T05:08:56;83.13;;;32.05;;
47762;SDS011;33526;42.690;23.322;2024-01-15T05:11:22;96.50;;;39.63;;
47762;SDS011;33526;42.690;23.322;2024-01-15T05:13:51;109.60;;;42.00;;
47762;SDS011;33526;42.690;23.322;2024-01-15T05:16:17;97.28;;;42.05;;
47762;SDS011;33526;42.690;23.322;2024-01-15T05:18:43;102.22;;;41.22;;
47762;SDS011;33526;42.690;23.322;2024-01-15T05:21:08;102.25;;;42.20;;
47762;SDS011;33526;42.690;23.322;2024-01-15T05:23:34;112.70;;;47.38;;
47762;SDS011;33526;42.690;23.322;2024-01-15T05:25:59;106.28;;;45.92;;
47762;SDS011;33526;42.690;23.322;2024-01-15T05:28:25;113.88;;;47.05;;
47762;SDS011;33526;42.690;23.322;2024-01-15T05:30:50;119.60;;;46.97;;
47762;SDS011;33526;42.690;23.322;2024-01-15T05:33:16;126.68;;;47.65;;
47762;SDS011;33526;42.690;23.322;2024-01-15T05:35:42;125.75;;;50.67;;
47762;SDS011;33526;42.690;23.322;2024-01-15T05:38:08;120.30;;;49.53;;
47762;SDS011;33526;42.690;23.322;2024-01-15T05:40:34;118.97;;;51.73;;
47762;SDS011;33526;42.690;23.322;2024-01-15T05:43:00;119.45;;;49.25;;
47762;SDS011;33526;42.690;23.322;2024-01-15T05:45:26;116.05;;;47.95;;
47762;SDS011;33526;42.690;23.322;2024-01-15T05:47:53;134.27;;;52.28;;
47762;SDS011;33526;42.690;23.322;2024-01-15T05:52:44;126.55;;;48.55;;
47762;SDS011;33526;42.690;23.322;2024-01-15T05:55:09;134.98;;;50.25;;
47762;SDS011;33526;42.690;23.322;2024-01-15T05:57:37;133.73;;;50.80;;
47762;SDS011;33526;42.690;23.322;2024-01-15T06:00:03;124.35;;;50.67;;
47762;SDS011;33526;42.690;23.322;2024-01-15T06:02:29;141.73;;;55.88;;
47762;SDS011;33526;42.690;23.322;2024-01-15T06:04:54;135.60;;;55.53;;
47762;SDS011;33526;42.690;23.322;2024-01-15T06:07:22;133.48;;;55.88;;
47762;SDS011;33526;42.690;23.322;2024-01-15T06:09:47;139.63;;;56.47;;
47762;SDS011;33526;42.690;23.322;2024-01-15T06:12:13;168.73;;;68.10;;
47762;SDS011;33526;42.690;23.322;2024-01-15T06:14:39;164.23;;;65.75;;
47762;SDS011;33526;42.690;23.322;2024-01-15T06:17:06;179.05;;;71.38;;
47762;SDS011;33526;42.690;23.322;2024-01-15T06:19:33;167.63;;;67.97;;
47762;SDS011;33526;42.690;23.322;2024-01-15T06:21:59;190.75;;;78.95;;
47762;SDS011;33526;42.690;23.322;2024-01-15T06:24:24;196.75;;;79.35;;
47762;SDS011;33526;42.690;23.322;2024-01-15T06:26:50;144.80;;;56.35;;
47762;SDS011;33526;42.690;23.322;2024-01-15T06:29:15;192.68;;;78.15;;
47762;SDS011;33526;42.690;23.322;2024-01-15T06:31:41;180.52;;;75.35;;
47762;SDS011;33526;42.690;23.322;2024-01-15T06:34:08;127.53;;;54.60;;
47762;SDS011;33526;42.690;23.322;2024-01-15T06:36:33;187.20;;;75.50;;
47762;SDS011;33526;42.690;23.322;2024-01-15T06:38:59;180.18;;;72.45;;
47762;SDS011;33526;42.690;23.322;2024-01-15T06:41:24;207.20;;;79.45;;
47762;SDS011;33526;42.690;23.322;2024-01-15T06:43:52;196.40;;;84.87;;
47762;SDS011;33526;42.690;23.322;2024-01-15T06:46:21;219.75;;;86.75;;
47762;SDS011;33526;42.690;23.322;2024-01-15T06:48:47;200.43;;;82.40;;
47762;SDS011;33526;42.690;23.322;2024-01-15T06:51:13;199.45;;;80.97;;
47762;SDS011;33526;42.690;23.322;2024-01-15T06:56:07;197.80;;;80.65;;
47762;SDS011;33526;42.690;23.322;2024-01-15T06:58:34;197.27;;;82.40;;
47762;SDS011;33526;42.690;23.322;2024-01-15T07:01:01;199.43;;;83.95;;
47762;SDS011;33526;42.690;23.322;2024-01-15T07:03:27;185.00;;;78.43;;
47762;SDS011;33526;42.690;23.322;2024-01-15T07:05:52;185.95;;;81.05;;
47762;SDS011;33526;42.690;23.322;2024-01-15T07:08:19;191.13;;;78.32;;
47762;SDS011;33526;42.690;23.322;2024-01-15T07:10:46;178.93;;;76.87;;
47762;SDS011;33526;42.690;23.322;2024-01-15T07:13:11;191.68;;;78.65;;
47762;SDS011;33526;42.690;23.322;2024-01-15T07:15:36;175.45;;;78.68;;
47762;SDS011;33526;42.690;23.322;2024-01-15T07:18:02;188.90;;;78.05;;
47762;SDS011;33526;42.690;23.322;2024-01-15T07:20:28;177.40;;;79.03;;
47762;SDS011;33526;42.690;23.322;2024-01-15T07:22:53;187.93;;;77.88;;
47762;SDS011;33526;42.690;23.322;2024-01-15T07:25:18;176.57;;;76.15;;
47762;SDS011;33526;42.690;23.322;2024-01-15T07:27:44;184.82;;;74.47;;
47762;SDS011;33526;42.690;23.322;2024-01-15T07:30:11;177.88;;;76.47;;
47762;SDS011;33526;42.690;23.322;2024-01-15T07:32:37;185.75;;;78.00;;
47762;SDS011;33526;42.690;23.322;2024-01-15T07:35:03;172.45;;;77.68;;
47762;SDS011;33526;42.690;23.322;2024-01-15T07:37:29;173.13;;;76.50;;
47762;SDS011;33526;42.690;23.322;2024-01-15T07:39:58;182.27;;;75.95;;
47762;SDS011;33526;42.690;23.322;2024-01-15T07:42:24;166.63;;;73.13;;
47762;SDS011;33526;42.690;23.322;2024-01-15T07:44:49;179.50;;;74.72;;
47762;SDS011;33526;42.690;23.322;2024-01-15T07:47:16;169.02;;;68.22;;
47762;SDS011;33526;42.690;23.322;2024-01-15T07:49:42;147.38;;;67.13;;
47762;SDS011;33526;42.690;23.322;2024-01-15T07:52:07;164.52;;;66.97;;
47762;SDS011;33526;42.690;23.322;2024-01-15T07:54:33;152.57;;;66.95;;
47762;SDS011;33526;42.690;23.322;2024-01-15T07:56:59;146.75;;;65.05;;
47762;SDS011;33526;42.690;23.322;2024-01-15T07:59:26;153.73;;;64.97;;
47762;SDS011;33526;42.690;23.322;2024-01-15T08:01:52;165.20;;;67.10;;
47762;SDS011;33526;42.690;23.322;2024-01-15T08:04:18;138.00;;;61.35;;
47762;SDS011;33526;42.690;23.322;2024-01-15T08:06:44;138.23;;;59.88;;
47762;SDS011;33526;42.690;23.322;2024-01-15T08:09:10;129.03;;;56.90;;
47762;SDS011;33526;42.690;23.322;2024-01-15T08:11:35;118.05;;;53.33;;
47762;SDS011;33526;42.690;23.322;2024-01-15T08:14:01;119.65;;;51.97;;
47762;SDS011;33526;42.690;23.322;2024-01-15T08:16:27;115.30;;;50.95;;
47762;SDS011;33526;42.690;23.322;2024-01-15T08:18:55;117.00;;;51.17;;
47762;SDS011;33526;42.690;23.322;2024-01-15T08:21:21;111.53;;;52.47;;
47762;SDS011;33526;42.690;23.322;2024-01-15T08:23:47;105.97;;;51.53;;
47762;SDS011;33526;42.690;23.322;2024-01-15T08:26:12;124.32;;;52.30;;
47762;SDS011;33526;42.690;23.322;2024-01-15T08:28:38;105.28;;;45.05;;
47762;SDS011;33526;42.690;23.322;2024-01-15T08:31:03;100.82;;;45.30;;
47762;SDS011;33526;42.690;23.322;2024-01-15T08:33:29;102.90;;;45.50;;
47762;SDS011;33526;42.690;23.322;2024-01-15T08:35:55;110.57;;;44.97;;
47762;SDS011;33526;42.690;23.322;2024-01-15T08:38:20;98.68;;;43.92;;
47762;SDS011;33526;42.690;23.322;2024-01-15T08:40:46;99.68;;;43.58;;
47762;SDS011;33526;42.690;23.322;2024-01-15T08:43:14;95.20;;;43.42;;
47762;SDS011;33526;42.690;23.322;2024-01-15T08:45:39;94.32;;;43.13;;
47762;SDS011;33526;42.690;23.322;2024-01-15T08:48:04;97.70;;;42.88;;
47762;SDS011;33526;42.690;23.322;2024-01-15T08:50:31;94.90;;;44.08;;
47762;SDS011;33526;42.690;23.322;2024-01-15T08:52:57;99.05;;;43.53;;
47762;SDS011;33526;42.690;23.322;2024-01-15T08:55:23;107.78;;;42.50;;
47762;SDS011;33526;42.690;23.322;2024-01-15T08:57:49;106.88;;;45.10;;
47762;SDS011;33526;42.690;23.322;2024-01-15T09:00:16;140.88;;;60.55;;
47762;SDS011;33526;42.690;23.322;2024-01-15T09:02:42;173.20;;;79.13;;
47762;SDS011;33526;42.690;23.322;2024-01-15T09:05:12;166.80;;;70.85;;
47762;SDS011;33526;42.690;23.322;2024-01-15T09:07:38;82.97;;;36.43;;
47762;SDS011;33526;42.690;23.322;2024-01-15T09:10:04;176.32;;;79.95;;
47762;SDS011;33526;42.690;23.322;2024-01-15T09:12:31;174.10;;;78.68;;
47762;SDS011;33526;42.690;23.322;2024-01-15T09:14:57;162.80;;;72.40;;
47762;SDS011;33526;42.690;23.322;2024-01-15T09:17:22;169.25;;;76.45;;
47762;SDS011;33526;42.690;23.322;2024-01-15T09:19:53;130.30;;;55.30;;
47762;SDS011;33526;42.690;23.322;2024-01-15T09:22:18;163.25;;;75.70;;
47762;SDS011;33526;42.690;23.322;2024-01-15T09:24:44;165.77;;;73.65;;
47762;SDS011;33526;42.690;23.322;2024-01-15T09:27:12;196.65;;;84.80;;
47762;SDS011;33526;42.690;23.322;2024-01-15T09:29:38;204.70;;;95.25;;
47762;SDS011;33526;42.690;23.322;2024-01-15T09:32:06;213.48;;;92.28;;
47762;SDS011;33526;42.690;23.322;2024-01-15T09:34:32;218.07;;;95.38;;
47762;SDS011;33526;42.690;23.322;2024-01-15T09:37:01;220.85;;;95.72;;
47762;SDS011;33526;42.690;23.322;2024-01-15T09:39:27;212.88;;;90.97;;
47762;SDS011;33526;42.690;23.322;2024-01-15T09:41:53;208.70;;;92.35;;
47762;SDS011;33526;42.690;23.322;2024-01-15T09:44:20;211.85;;;92.60;;
47762;SDS011;33526;42.690;23.322;2024-01-15T09:46:46;210.80;;;91.82;;
47762;SDS011;33526;42.690;23.322;2024-01-15T09:49:18;209.60;;;90.13;;
47762;SDS011;33526;42.690;23.322;2024-01-15T09:51:44;190.05;;;85.50;;
47762;SDS011;33526;42.690;23.322;2024-01-15T09:54:09;191.15;;;86.30;;
47762;SDS011;33526;42.690;23.322;2024-01-15T09:56:35;190.00;;;86.03;;
47762;SDS011;33526;42.690;23.322;2024-01-15T09:59:01;189.23;;;80.47;;
47762;SDS011;33526;42.690;23.322;2024-01-15T10:01:27;173.20;;;77.97;;
47762;SDS011;33526;42.690;23.322;2024-01-15T10:03:54;164.50;;;72.38;;
47762;SDS011;33526;42.690;23.322;2024-01-15T10:06:19;171.20;;;75.70;;
47762;SDS011;33526;42.690;23.322;2024-01-15T10:08:47;168.90;;;70.10;;
47762;SDS011;33526;42.690;23.322;2024-01-15T10:11:14;161.48;;;69.13;;
47762;SDS011;33526;42.690;23.322;2024-01-15T10:13:41;173.32;;;72.03;;
47762;SDS011;33526;42.690;23.322;2024-01-15T10:16:08;173.88;;;70.93;;
47762;SDS011;33526;42.690;23.322;2024-01-15T10:18:34;107.60;;;44.37;;
47762;SDS011;33526;42.690;23.322;2024-01-15T10:21:02;148.10;;;60.25;;
47762;SDS011;33526;42.690;23.322;2024-01-15T10:25:56;119.85;;;54.28;;
47762;SDS011;33526;42.690;23.322;2024-01-15T10:28:22;131.70;;;57.45;;
47762;SDS011;33526;42.690;23.322;2024-01-15T10:30:47;119.20;;;53.22;;
47762;SDS011;33526;42.690;23.322;2024-01-15T10:33:19;131.52;;;55.83;;
47762;SDS011;33526;42.690;23.322;2024-01-15T10:35:50;148.25;;;57.88;;
47762;SDS011;33526;42.690;23.322;2024-01-15T10:38:19;130.02;;;53.70;;
47762;SDS011;33526;42.690;23.322;2024-01-15T10:40:55;112.10;;;50.58;;
47762;SDS011;33526;42.690;23.322;2024-01-15T10:43:21;124.93;;;51.47;;
47762;SDS011;33526;42.690;23.322;2024-01-15T10:45:48;86.43;;;41.57;;
47762;SDS011;33526;42.690;23.322;2024-01-15T10:48:16;93.63;;;44.15;;
47762;SDS011;33526;42.690;23.322;2024-01-15T10:50:42;76.68;;;36.03;;
47762;SDS011;33526;42.690;23.322;2024-01-15T10:53:09;85.27;;;38.77;;
47762;SDS011;33526;42.690;23.322;2024-01-15T10:55:38;68.57;;;31.05;;
47762;SDS011;33526;42.690;23.322;2024-01-15T10:58:07;69.15;;;31.70;;
47762;SDS011;33526;42.690;23.322;2024-01-15T11:00:33;76.53;;;33.47;;
47762;SDS011;33526;42.690;23.322;2024-01-15T11:03:01;72.10;;;31.52;;
47762;SDS011;33526;42.690;23.322;2024-01-15T11:05:27;54.05;;;26.17;;
47762;SDS011;33526;42.690;23.322;2024-01-15T11:07:56;55.05;;;26.20;;
47762;SDS011;33526;42.690;23.322;2024-01-15T11:10:38;61.88;;;30.00;;
47762;SDS011;33526;42.690;23.322;2024-01-15T11:13:09;60.45;;;28.17;;
47762;SDS011;33526;42.690;23.322;2024-01-15T11:18:25;84.90;;;36.40;;
47762;SDS011;33526;42.690;23.322;2024-01-15T11:21:25;58.85;;;28.45;;
47762;SDS011;33526;42.690;23.322;2024-01-15T11:23:44;64.13;;;25.88;;
47762;SDS011;33526;42.690;23.322;2024-01-15T11:37:29;61.50;;;26.95;;
47762;SDS011;33526;42.690;23.322;2024-01-15T11:40:15;57.83;;;26.48;;
47762;SDS011;33526;42.690;23.322;2024-01-15T11:42:44;64.13;;;26.90;;
47762;SDS011;33526;42.690;23.322;2024-01-15T11:45:10;56.75;;;27.60;;
47762;SDS011;33526;42.690;23.322;2024-01-15T11:50:17;52.50;;;25.50;;
47762;SDS011;33526;42.690;23.322;2024-01-15T11:52:44;48.67;;;24.45;;
47762;SDS011;33526;42.690;23.322;2024-01-15T11:57:54;49.85;;;23.70;;
47762;SDS011;33526;42.690;23.322;2024-01-15T12:00:22;51.92;;;24.85;;
47762;SDS011;33526;42.690;23.322;2024-01-15T12:02:49;57.90;;;24.60;;
47762;SDS011;33526;42.690;23.322;2024-01-15T12:05:19;50.88;;;24.45;;
47762;SDS011;33526;42.690;23.322;2024-01-15T12:07:46;45.10;;;23.20;;
47762;SDS011;33526;42.690;23.322;2024-01-15T12:15:08;72.53;;;27.15;;
47762;SDS011;33526;42.690;23.322;2024-01-15T12:17:38;63.45;;;26.17;;
47762;SDS011;33526;42.690;23.322;2024-01-15T12:20:04;64.72;;;29.08;;
47762;SDS011;33526;42.690;23.322;2024-01-15T12:22:41;50.03;;;24.95;;
47762;SDS011;33526;42.690;23.322;2024-01-15T12:25:13;64.65;;;29.33;;
47762;SDS011;33526;42.690;23.322;2024-01-15T12:27:40;59.20;;;28.77;;
47762;SDS011;33526;42.690;23.322;2024-01-15T12:30:06;58.40;;;29.10;;
47762;SDS011;33526;42.690;23.322;2024-01-15T12:35:00;67.68;;;28.98;;
47762;SDS011;33526;42.690;23.322;2024-01-15T12:37:25;51.03;;;26.50;;
47762;SDS011;33526;42.690;23.322;2024-01-15T12:39:51;54.08;;;25.73;;
47762;SDS011;33526;42.690;23.322;2024-01-15T12:42:22;54.45;;;25.13;;
47762;SDS011;33526;42.690;23.322;2024-01-15T12:45:07;64.63;;;27.98;;
47762;SDS011;33526;42.690;23.322;2024-01-15T12:47:39;60.88;;;28.75;;
47762;SDS011;33526;42.690;23.322;2024-01-15T12:50:07;67.45;;;31.23;;
47762;SDS011;33526;42.690;23.322;2024-01-15T12:52:42;61.55;;;28.67;;
47762;SDS011;33526;42.690;23.322;2024-01-15T12:55:08;65.00;;;29.55;;
47762;SDS011;33526;42.690;23.322;2024-01-15T12:57:35;69.35;;;31.25;;
47762;SDS011;33526;42.690;23.322;2024-01-15T13:00:02;61.05;;;28.60;;
47762;SDS011;33526;42.690;23.322;2024-01-15T13:02:32;59.67;;;28.52;;
47762;SDS011;33526;42.690;23.322;2024-01-15T13:04:59;72.38;;;33.08;;
47762;SDS011;33526;42.690;23.322;2024-01-15T13:07:27;77.60;;;34.42;;
47762;SDS011;33526;42.690;23.322;2024-01-15T13:09:53;72.97;;;30.60;;
47762;SDS011;33526;42.690;23.322;2024-01-15T13:12:19;57.95;;;29.30;;
47762;SDS011;33526;42.690;23.322;2024-01-15T13:14:46;66.10;;;30.95;;
47762;SDS011;33526;42.690;23.322;2024-01-15T13:17:14;67.60;;;29.17;;
47762;SDS011;33526;42.690;23.322;2024-01-15T13:19:40;61.30;;;29.48;;
47762;SDS011;33526;42.690;23.322;2024-01-15T13:22:05;80.63;;;34.05;;
47762;SDS011;33526;42.690;23.322;2024-01-15T13:24:34;56.97;;;28.92;;
47762;SDS011;33526;42.690;23.322;2024-01-15T13:27:02;70.60;;;31.55;;
47762;SDS011;33526;42.690;23.322;2024-01-15T13:29:35;63.25;;;29.80;;
47762;SDS011;33526;42.690;23.322;2024-01-15T13:32:02;65.13;;;31.20;;
47762;SDS011;33526;42.690;23.322;2024-01-15T13:36:54;76.32;;;31.60;;
47762;SDS011;33526;42.690;23.322;2024-01-15T13:39:22;62.58;;;29.95;;
47762;SDS011;33526;42.690;23.322;2024-01-15T13:41:49;69.07;;;31.52;;
47762;SDS011;33526;42.690;23.322;2024-01-15T13:44:23;59.83;;;26.67;;
47762;SDS011;33526;42.690;23.322;2024-01-15T13:46:49;63.92;;;27.88;;
47762;SDS011;33526;42.690;23.322;2024-01-15T13:49:14;61.38;;;26.75;;
47762;SDS011;33526;42.690;23.322;2024-01-15T13:51:40;56.92;;;26.00;;
47762;SDS011;33526;42.690;23.322;2024-01-15T13:54:06;54.65;;;23.95;;
47762;SDS011;33526;42.690;23.322;2024-01-15T13:56:34;49.30;;;24.90;;
47762;SDS011;33526;42.690;23.322;2024-01-15T13:59:06;54.20;;;26.27;;
47762;SDS011;33526;42.690;23.322;2024-01-15T14:01:31;51.22;;;25.65;;
47762;SDS011;33526;42.690;23.322;2024-01-15T14:03:56;52.78;;;26.63;;
47762;SDS011;33526;42.690;23.322;2024-01-15T14:06:25;61.17;;;29.95;;
47762;SDS011;33526;42.690;23.322;2024-01-15T14:08:52;63.00;;;27.27;;
47762;SDS011;33526;42.690;23.322;2024-01-15T14:11:18;61.85;;;26.25;;
47762;SDS011;33526;42.690;23.322;2024-01-15T14:13:44;60.83;;;26.25;;
47762;SDS011;33526;42.690;23.322;2024-01-15T14:16:10;81.47;;;34.83;;
47762;SDS011;33526;42.690;23.322;2024-01-15T14:18:37;57.33;;;25.75;;
47762;SDS011;33526;42.690;23.322;2024-01-15T14:21:02;67.70;;;29.90;;
47762;SDS011;33526;42.690;23.322;2024-01-15T14:23:28;64.10;;;26.73;;
47762;SDS011;33526;42.690;23.322;2024-01-15T14:25:54;67.63;;;31.15;;
47762;SDS011;33526;42.690;23.322;2024-01-15T14:28:19;65.47;;;31.75;;
47762;SDS011;33526;42.690;23.322;2024-01-15T14:31:01;64.00;;;28.88;;
47762;SDS011;33526;42.690;23.322;2024-01-15T14:33:37;75.03;;;28.23;;
47762;SDS011;33526;42.690;23.322;2024-01-15T14:36:04;49.10;;;24.80;;
47762;SDS011;33526;42.690;23.322;2024-01-15T14:38:30;51.00;;;24.73;;
47762;SDS011;33526;42.690;23.322;2024-01-15T14:40:55;46.55;;;22.63;;
47762;SDS011;33526;42.690;23.322;2024-01-15T14:43:21;46.17;;;22.98;;
47762;SDS011;33526;42.690;23.322;2024-01-15T14:45:47;47.08;;;23.00;;
47762;SDS011;33526;42.690;23.322;2024-01-15T14:48:12;45.28;;;23.88;;